Ingleside, Illinois
Current Conditions -  °F | °C
As of 3:32 PM on Monday 24 Nov 2014 (Local Time) from KUGN Reporting Station
Light Snow Light Snow  
Wind Chill: 16°   Ceiling: 1400
Heat Index: 28°   Visibility: 2mi
Dew Point: 24°   Wind: 16mph
Humidity: 85%   Direction: 230°SW
Pressure: 29.45"   Gusts: 32mph
Location:  42.38°N, 88.14°W
Report Text: KUGN 242132Z 23014G28KT 2SM -SN BR BKN014 BKN019 OVC046 M02/M04 A2945 RMK AO2 PK WND 21029/2110 P0000 T10221044
Loading
Personal Weather Stations






























Interactive Weather Map New forecast layout! Learn more

10-Day Weather Forecast

Advertisements
Track Severe Weather on mobile